sensor_id;sensor_type;location;lat;lon;timestamp;P1;durP1;ratioP1;P2;durP2;ratioP2
71204;SDS011;58935;54.498;18.544;2023-07-08T00:00:43;4.00;;;2.60;;
71204;SDS011;58935;54.498;18.544;2023-07-08T00:03:13;2.80;;;2.50;;
71204;SDS011;58935;54.498;18.544;2023-07-08T00:05:40;4.30;;;2.10;;
71204;SDS011;58935;54.498;18.544;2023-07-08T00:08:11;2.40;;;2.20;;
71204;SDS011;58935;54.498;18.544;2023-07-08T00:10:40;3.30;;;2.20;;
71204;SDS011;58935;54.498;18.544;2023-07-08T00:13:08;2.40;;;2.00;;
71204;SDS011;58935;54.498;18.544;2023-07-08T00:15:34;4.60;;;2.30;;
71204;SDS011;58935;54.498;18.544;2023-07-08T00:18:03;5.10;;;2.40;;
71204;SDS011;58935;54.498;18.544;2023-07-08T00:20:38;4.70;;;2.30;;
71204;SDS011;58935;54.498;18.544;2023-07-08T00:23:08;3.20;;;2.20;;
71204;SDS011;58935;54.498;18.544;2023-07-08T00:25:35;2.30;;;1.90;;
71204;SDS011;58935;54.498;18.544;2023-07-08T00:28:00;4.00;;;2.10;;
71204;SDS011;58935;54.498;18.544;2023-07-08T00:30:28;2.90;;;2.30;;
71204;SDS011;58935;54.498;18.544;2023-07-08T00:32:56;2.10;;;1.90;;
71204;SDS011;58935;54.498;18.544;2023-07-08T00:35:35;5.30;;;2.20;;
71204;SDS011;58935;54.498;18.544;2023-07-08T00:38:14;2.90;;;2.00;;
71204;SDS011;58935;54.498;18.544;2023-07-08T00:41:06;3.70;;;2.30;;
71204;SDS011;58935;54.498;18.544;2023-07-08T00:43:45;8.00;;;2.20;;
71204;SDS011;58935;54.498;18.544;2023-07-08T00:46:31;2.80;;;2.30;;
71204;SDS011;58935;54.498;18.544;2023-07-08T00:49:23;3.30;;;2.20;;
71204;SDS011;58935;54.498;18.544;2023-07-08T00:52:16;6.90;;;2.00;;
71204;SDS011;58935;54.498;18.544;2023-07-08T00:54:45;4.00;;;2.00;;
71204;SDS011;58935;54.498;18.544;2023-07-08T00:57:11;3.90;;;2.10;;
71204;SDS011;58935;54.498;18.544;2023-07-08T00:59:47;3.60;;;1.80;;
71204;SDS011;58935;54.498;18.544;2023-07-08T01:02:19;2.50;;;2.10;;
71204;SDS011;58935;54.498;18.544;2023-07-08T01:04:55;5.30;;;2.30;;
71204;SDS011;58935;54.498;18.544;2023-07-08T01:07:25;2.10;;;2.00;;
71204;SDS011;58935;54.498;18.544;2023-07-08T01:09:57;2.70;;;1.70;;
71204;SDS011;58935;54.498;18.544;2023-07-08T01:12:31;4.40;;;2.10;;
71204;SDS011;58935;54.498;18.544;2023-07-08T01:15:02;2.80;;;2.20;;
71204;SDS011;58935;54.498;18.544;2023-07-08T01:17:29;3.60;;;2.20;;
71204;SDS011;58935;54.498;18.544;2023-07-08T01:19:59;1.90;;;1.80;;
71204;SDS011;58935;54.498;18.544;2023-07-08T01:22:25;2.00;;;1.80;;
71204;SDS011;58935;54.498;18.544;2023-07-08T01:24:57;2.80;;;1.90;;
71204;SDS011;58935;54.498;18.544;2023-07-08T01:27:29;2.80;;;2.00;;
71204;SDS011;58935;54.498;18.544;2023-07-08T01:29:59;5.10;;;2.10;;
71204;SDS011;58935;54.498;18.544;2023-07-08T01:32:26;2.60;;;2.00;;
71204;SDS011;58935;54.498;18.544;2023-07-08T01:34:55;2.40;;;1.80;;
71204;SDS011;58935;54.498;18.544;2023-07-08T01:37:41;2.40;;;1.50;;
71204;SDS011;58935;54.498;18.544;2023-07-08T01:40:39;5.80;;;2.10;;
71204;SDS011;58935;54.498;18.544;2023-07-08T01:43:13;2.80;;;1.70;;
71204;SDS011;58935;54.498;18.544;2023-07-08T01:45:41;2.60;;;1.70;;
71204;SDS011;58935;54.498;18.544;2023-07-08T01:48:20;1.60;;;1.50;;
71204;SDS011;58935;54.498;18.544;2023-07-08T01:50:51;1.90;;;1.70;;
71204;SDS011;58935;54.498;18.544;2023-07-08T01:53:34;2.10;;;1.80;;
71204;SDS011;58935;54.498;18.544;2023-07-08T01:56:03;2.50;;;1.40;;
71204;SDS011;58935;54.498;18.544;2023-07-08T01:58:30;2.30;;;1.50;;
71204;SDS011;58935;54.498;18.544;2023-07-08T02:00:56;2.50;;;1.80;;
71204;SDS011;58935;54.498;18.544;2023-07-08T02:03:22;1.90;;;1.70;;
71204;SDS011;58935;54.498;18.544;2023-07-08T02:05:48;2.70;;;1.40;;
71204;SDS011;58935;54.498;18.544;2023-07-08T02:08:14;2.10;;;1.70;;
71204;SDS011;58935;54.498;18.544;2023-07-08T02:10:41;3.60;;;1.60;;
71204;SDS011;58935;54.498;18.544;2023-07-08T02:13:08;1.70;;;1.60;;
71204;SDS011;58935;54.498;18.544;2023-07-08T02:15:34;2.20;;;1.30;;
71204;SDS011;58935;54.498;18.544;2023-07-08T02:17:59;2.20;;;1.70;;
71204;SDS011;58935;54.498;18.544;2023-07-08T02:20:25;4.10;;;1.60;;
71204;SDS011;58935;54.498;18.544;2023-07-08T02:22:51;1.90;;;1.30;;
71204;SDS011;58935;54.498;18.544;2023-07-08T02:25:17;2.80;;;1.70;;
71204;SDS011;58935;54.498;18.544;2023-07-08T02:27:42;1.90;;;1.70;;
71204;SDS011;58935;54.498;18.544;2023-07-08T02:30:09;2.80;;;1.60;;
71204;SDS011;58935;54.498;18.544;2023-07-08T02:32:35;3.30;;;1.50;;
71204;SDS011;58935;54.498;18.544;2023-07-08T02:35:05;2.40;;;1.50;;
71204;SDS011;58935;54.498;18.544;2023-07-08T02:37:32;2.60;;;1.50;;
71204;SDS011;58935;54.498;18.544;2023-07-08T02:39:58;3.00;;;1.80;;
71204;SDS011;58935;54.498;18.544;2023-07-08T02:42:23;4.20;;;1.40;;
71204;SDS011;58935;54.498;18.544;2023-07-08T02:44:49;2.50;;;1.60;;
71204;SDS011;58935;54.498;18.544;2023-07-08T02:47:15;2.90;;;1.70;;
71204;SDS011;58935;54.498;18.544;2023-07-08T02:49:40;1.60;;;1.40;;
71204;SDS011;58935;54.498;18.544;2023-07-08T02:52:06;2.20;;;1.70;;
71204;SDS011;58935;54.498;18.544;2023-07-08T02:54:32;2.60;;;1.50;;
71204;SDS011;58935;54.498;18.544;2023-07-08T02:56:57;4.10;;;1.70;;
71204;SDS011;58935;54.498;18.544;2023-07-08T02:59:23;1.30;;;1.20;;
71204;SDS011;58935;54.498;18.544;2023-07-08T03:01:48;2.10;;;1.20;;
71204;SDS011;58935;54.498;18.544;2023-07-08T03:04:15;2.30;;;1.70;;
71204;SDS011;58935;54.498;18.544;2023-07-08T03:10:22;2.50;;;1.60;;
71204;SDS011;58935;54.498;18.544;2023-07-08T03:12:48;1.40;;;1.40;;
71204;SDS011;58935;54.498;18.544;2023-07-08T03:15:13;1.60;;;1.50;;
71204;SDS011;58935;54.498;18.544;2023-07-08T03:17:38;1.50;;;1.40;;
71204;SDS011;58935;54.498;18.544;2023-07-08T03:20:04;1.70;;;1.60;;
71204;SDS011;58935;54.498;18.544;2023-07-08T03:22:31;1.70;;;1.50;;
71204;SDS011;58935;54.498;18.544;2023-07-08T03:24:56;5.50;;;1.70;;
71204;SDS011;58935;54.498;18.544;2023-07-08T03:27:21;8.80;;;1.40;;
71204;SDS011;58935;54.498;18.544;2023-07-08T03:29:47;3.10;;;1.60;;
71204;SDS011;58935;54.498;18.544;2023-07-08T03:32:13;2.00;;;1.40;;
71204;SDS011;58935;54.498;18.544;2023-07-08T03:34:39;1.90;;;1.40;;
71204;SDS011;58935;54.498;18.544;2023-07-08T03:37:04;1.70;;;1.60;;
71204;SDS011;58935;54.498;18.544;2023-07-08T03:39:30;3.30;;;1.60;;
71204;SDS011;58935;54.498;18.544;2023-07-08T03:41:57;2.00;;;1.60;;
71204;SDS011;58935;54.498;18.544;2023-07-08T03:44:22;1.40;;;1.40;;
71204;SDS011;58935;54.498;18.544;2023-07-08T03:46:49;2.60;;;1.70;;
71204;SDS011;58935;54.498;18.544;2023-07-08T03:49:16;2.90;;;1.20;;
71204;SDS011;58935;54.498;18.544;2023-07-08T03:51:47;4.90;;;1.30;;
71204;SDS011;58935;54.498;18.544;2023-07-08T03:54:14;2.00;;;1.40;;
71204;SDS011;58935;54.498;18.544;2023-07-08T03:56:40;1.50;;;1.30;;
71204;SDS011;58935;54.498;18.544;2023-07-08T03:59:06;1.80;;;1.40;;
71204;SDS011;58935;54.498;18.544;2023-07-08T04:01:32;1.70;;;1.20;;
71204;SDS011;58935;54.498;18.544;2023-07-08T04:03:58;1.60;;;1.50;;
71204;SDS011;58935;54.498;18.544;2023-07-08T04:06:25;1.70;;;1.60;;
71204;SDS011;58935;54.498;18.544;2023-07-08T04:08:52;5.30;;;1.80;;
71204;SDS011;58935;54.498;18.544;2023-07-08T04:11:22;2.30;;;1.60;;
71204;SDS011;58935;54.498;18.544;2023-07-08T04:13:49;1.80;;;1.50;;
71204;SDS011;58935;54.498;18.544;2023-07-08T04:16:19;8.00;;;1.60;;
71204;SDS011;58935;54.498;18.544;2023-07-08T04:18:47;4.30;;;1.60;;
71204;SDS011;58935;54.498;18.544;2023-07-08T04:21:16;2.40;;;1.70;;
71204;SDS011;58935;54.498;18.544;2023-07-08T04:23:43;2.70;;;1.60;;
71204;SDS011;58935;54.498;18.544;2023-07-08T04:26:09;6.40;;;1.80;;
71204;SDS011;58935;54.498;18.544;2023-07-08T04:28:35;5.20;;;1.90;;
71204;SDS011;58935;54.498;18.544;2023-07-08T04:31:01;2.00;;;1.70;;
71204;SDS011;58935;54.498;18.544;2023-07-08T04:33:27;2.10;;;1.90;;
71204;SDS011;58935;54.498;18.544;2023-07-08T04:35:53;3.10;;;1.90;;
71204;SDS011;58935;54.498;18.544;2023-07-08T04:38:22;2.50;;;1.80;;
71204;SDS011;58935;54.498;18.544;2023-07-08T04:40:50;2.20;;;1.80;;
71204;SDS011;58935;54.498;18.544;2023-07-08T04:43:18;3.00;;;1.90;;
71204;SDS011;58935;54.498;18.544;2023-07-08T04:45:48;2.40;;;1.60;;
71204;SDS011;58935;54.498;18.544;2023-07-08T04:48:17;1.60;;;1.50;;
71204;SDS011;58935;54.498;18.544;2023-07-08T04:50:48;6.30;;;1.50;;
71204;SDS011;58935;54.498;18.544;2023-07-08T04:53:15;2.30;;;1.80;;
71204;SDS011;58935;54.498;18.544;2023-07-08T04:55:48;2.50;;;1.70;;
71204;SDS011;58935;54.498;18.544;2023-07-08T04:58:19;2.80;;;1.50;;
71204;SDS011;58935;54.498;18.544;2023-07-08T05:00:45;2.50;;;1.90;;
71204;SDS011;58935;54.498;18.544;2023-07-08T05:03:10;2.80;;;1.70;;
71204;SDS011;58935;54.498;18.544;2023-07-08T05:05:54;2.10;;;1.90;;
71204;SDS011;58935;54.498;18.544;2023-07-08T05:08:20;2.70;;;1.80;;
71204;SDS011;58935;54.498;18.544;2023-07-08T05:10:45;4.50;;;1.60;;
71204;SDS011;58935;54.498;18.544;2023-07-08T05:13:10;2.50;;;1.80;;
71204;SDS011;58935;54.498;18.544;2023-07-08T05:15:36;4.10;;;1.80;;
71204;SDS011;58935;54.498;18.544;2023-07-08T05:18:01;2.10;;;1.80;;
71204;SDS011;58935;54.498;18.544;2023-07-08T05:20:27;1.80;;;1.50;;
71204;SDS011;58935;54.498;18.544;2023-07-08T05:22:52;2.00;;;1.70;;
71204;SDS011;58935;54.498;18.544;2023-07-08T05:25:18;1.80;;;1.50;;
71204;SDS011;58935;54.498;18.544;2023-07-08T05:27:46;2.30;;;1.50;;
71204;SDS011;58935;54.498;18.544;2023-07-08T05:30:15;4.40;;;1.50;;
71204;SDS011;58935;54.498;18.544;2023-07-08T05:32:43;1.90;;;1.70;;
71204;SDS011;58935;54.498;18.544;2023-07-08T05:35:10;2.00;;;1.50;;
71204;SDS011;58935;54.498;18.544;2023-07-08T05:37:35;4.70;;;1.80;;
71204;SDS011;58935;54.498;18.544;2023-07-08T05:40:02;4.40;;;1.90;;
71204;SDS011;58935;54.498;18.544;2023-07-08T05:42:29;2.90;;;1.90;;
71204;SDS011;58935;54.498;18.544;2023-07-08T05:44:55;7.40;;;2.10;;
71204;SDS011;58935;54.498;18.544;2023-07-08T05:47:21;2.90;;;1.60;;
71204;SDS011;58935;54.498;18.544;2023-07-08T05:49:47;2.00;;;1.70;;
71204;SDS011;58935;54.498;18.544;2023-07-08T05:52:13;4.80;;;1.90;;
71204;SDS011;58935;54.498;18.544;2023-07-08T05:54:39;4.00;;;2.20;;
71204;SDS011;58935;54.498;18.544;2023-07-08T05:57:07;3.50;;;1.70;;
71204;SDS011;58935;54.498;18.544;2023-07-08T05:59:36;2.80;;;1.70;;
71204;SDS011;58935;54.498;18.544;2023-07-08T06:02:04;2.60;;;1.80;;
71204;SDS011;58935;54.498;18.544;2023-07-08T06:04:31;8.50;;;2.20;;
71204;SDS011;58935;54.498;18.544;2023-07-08T06:06:57;2.40;;;2.00;;
71204;SDS011;58935;54.498;18.544;2023-07-08T06:09:22;4.20;;;2.10;;
71204;SDS011;58935;54.498;18.544;2023-07-08T06:11:48;3.50;;;1.90;;
71204;SDS011;58935;54.498;18.544;2023-07-08T06:14:13;3.90;;;2.10;;
71204;SDS011;58935;54.498;18.544;2023-07-08T06:16:39;5.00;;;2.10;;
71204;SDS011;58935;54.498;18.544;2023-07-08T06:19:04;4.80;;;2.60;;
71204;SDS011;58935;54.498;18.544;2023-07-08T06:21:30;2.30;;;2.10;;
71204;SDS011;58935;54.498;18.544;2023-07-08T06:23:56;3.00;;;2.00;;
71204;SDS011;58935;54.498;18.544;2023-07-08T06:26:21;2.80;;;2.10;;
71204;SDS011;58935;54.498;18.544;2023-07-08T06:28:46;4.00;;;2.00;;
71204;SDS011;58935;54.498;18.544;2023-07-08T06:31:11;5.70;;;2.10;;
71204;SDS011;58935;54.498;18.544;2023-07-08T06:33:37;3.40;;;2.10;;
71204;SDS011;58935;54.498;18.544;2023-07-08T06:36:02;4.40;;;2.30;;
71204;SDS011;58935;54.498;18.544;2023-07-08T06:38:28;4.60;;;2.20;;
71204;SDS011;58935;54.498;18.544;2023-07-08T06:40:53;3.80;;;2.00;;
71204;SDS011;58935;54.498;18.544;2023-07-08T06:43:18;4.70;;;2.40;;
71204;SDS011;58935;54.498;18.544;2023-07-08T06:45:44;2.10;;;1.90;;
71204;SDS011;58935;54.498;18.544;2023-07-08T06:48:09;6.50;;;2.50;;
71204;SDS011;58935;54.498;18.544;2023-07-08T06:50:35;8.10;;;2.70;;
71204;SDS011;58935;54.498;18.544;2023-07-08T06:53:00;4.70;;;2.10;;
71204;SDS011;58935;54.498;18.544;2023-07-08T06:55:26;3.20;;;2.00;;
71204;SDS011;58935;54.498;18.544;2023-07-08T06:57:51;4.90;;;2.10;;
71204;SDS011;58935;54.498;18.544;2023-07-08T07:00:17;2.80;;;1.80;;
71204;SDS011;58935;54.498;18.544;2023-07-08T07:02:42;3.50;;;2.30;;
71204;SDS011;58935;54.498;18.544;2023-07-08T07:05:08;2.50;;;2.10;;
71204;SDS011;58935;54.498;18.544;2023-07-08T07:07:34;4.40;;;2.20;;
71204;SDS011;58935;54.498;18.544;2023-07-08T07:10:00;4.70;;;2.00;;
71204;SDS011;58935;54.498;18.544;2023-07-08T07:12:26;2.80;;;2.10;;
71204;SDS011;58935;54.498;18.544;2023-07-08T07:14:52;4.40;;;2.60;;
71204;SDS011;58935;54.498;18.544;2023-07-08T07:17:22;3.70;;;2.40;;
71204;SDS011;58935;54.498;18.544;2023-07-08T07:19:49;4.10;;;2.40;;
71204;SDS011;58935;54.498;18.544;2023-07-08T07:22:15;4.70;;;2.10;;
71204;SDS011;58935;54.498;18.544;2023-07-08T07:24:41;3.20;;;2.50;;
71204;SDS011;58935;54.498;18.544;2023-07-08T07:27:08;2.20;;;2.00;;
71204;SDS011;58935;54.498;18.544;2023-07-08T07:29:42;3.70;;;2.20;;
71204;SDS011;58935;54.498;18.544;2023-07-08T07:32:10;2.40;;;2.20;;
71204;SDS011;58935;54.498;18.544;2023-07-08T07:34:37;6.90;;;2.80;;
71204;SDS011;58935;54.498;18.544;2023-07-08T07:37:05;5.30;;;2.60;;
71204;SDS011;58935;54.498;18.544;2023-07-08T07:39:32;5.90;;;2.60;;
71204;SDS011;58935;54.498;18.544;2023-07-08T07:41:57;4.90;;;2.60;;
71204;SDS011;58935;54.498;18.544;2023-07-08T07:44:23;6.30;;;2.30;;
71204;SDS011;58935;54.498;18.544;2023-07-08T07:46:51;5.30;;;3.40;;
71204;SDS011;58935;54.498;18.544;2023-07-08T07:49:17;3.30;;;2.50;;
71204;SDS011;58935;54.498;18.544;2023-07-08T07:51:42;7.60;;;2.60;;
71204;SDS011;58935;54.498;18.544;2023-07-08T07:54:08;5.80;;;2.90;;
71204;SDS011;58935;54.498;18.544;2023-07-08T07:56:35;6.60;;;2.90;;
71204;SDS011;58935;54.498;18.544;2023-07-08T07:59:00;4.50;;;2.80;;
71204;SDS011;58935;54.498;18.544;2023-07-08T08:01:25;5.40;;;2.90;;
71204;SDS011;58935;54.498;18.544;2023-07-08T08:03:51;2.90;;;2.70;;
71204;SDS011;58935;54.498;18.544;2023-07-08T08:06:17;3.40;;;2.30;;
71204;SDS011;58935;54.498;18.544;2023-07-08T08:08:44;4.40;;;2.40;;
71204;SDS011;58935;54.498;18.544;2023-07-08T08:11:10;4.50;;;3.10;;
71204;SDS011;58935;54.498;18.544;2023-07-08T08:13:37;4.30;;;2.70;;
71204;SDS011;58935;54.498;18.544;2023-07-08T08:16:11;6.10;;;3.30;;
71204;SDS011;58935;54.498;18.544;2023-07-08T08:18:37;5.40;;;2.90;;
71204;SDS011;58935;54.498;18.544;2023-07-08T08:21:02;5.50;;;2.40;;
71204;SDS011;58935;54.498;18.544;2023-07-08T08:23:31;5.00;;;2.60;;
71204;SDS011;58935;54.498;18.544;2023-07-08T08:25:56;6.10;;;2.60;;
71204;SDS011;58935;54.498;18.544;2023-07-08T08:28:21;8.40;;;2.50;;
71204;SDS011;58935;54.498;18.544;2023-07-08T08:30:48;6.70;;;3.20;;
71204;SDS011;58935;54.498;18.544;2023-07-08T08:33:14;6.10;;;2.70;;
71204;SDS011;58935;54.498;18.544;2023-07-08T08:35:41;9.90;;;2.70;;
71204;SDS011;58935;54.498;18.544;2023-07-08T08:38:08;4.40;;;2.50;;
71204;SDS011;58935;54.498;18.544;2023-07-08T08:40:33;2.80;;;2.20;;
71204;SDS011;58935;54.498;18.544;2023-07-08T08:43:10;3.90;;;2.50;;
71204;SDS011;58935;54.498;18.544;2023-07-08T08:45:48;5.10;;;2.50;;
71204;SDS011;58935;54.498;18.544;2023-07-08T08:48:20;3.20;;;2.50;;
71204;SDS011;58935;54.498;18.544;2023-07-08T08:50:52;4.30;;;2.60;;
71204;SDS011;58935;54.498;18.544;2023-07-08T08:53:23;4.00;;;2.80;;
71204;SDS011;58935;54.498;18.544;2023-07-08T08:55:56;4.40;;;2.60;;
71204;SDS011;58935;54.498;18.544;2023-07-08T08:58:37;3.30;;;2.40;;
71204;SDS011;58935;54.498;18.544;2023-07-08T09:01:12;3.90;;;2.60;;
71204;SDS011;58935;54.498;18.544;2023-07-08T09:03:45;3.70;;;2.30;;
71204;SDS011;58935;54.498;18.544;2023-07-08T09:06:24;3.30;;;2.40;;
71204;SDS011;58935;54.498;18.544;2023-07-08T09:08:52;3.60;;;2.60;;
71204;SDS011;58935;54.498;18.544;2023-07-08T09:11:27;5.00;;;2.60;;
71204;SDS011;58935;54.498;18.544;2023-07-08T09:14:04;7.10;;;2.30;;
71204;SDS011;58935;54.498;18.544;2023-07-08T09:16:46;5.90;;;2.30;;
71204;SDS011;58935;54.498;18.544;2023-07-08T09:19:25;3.10;;;2.30;;
71204;SDS011;58935;54.498;18.544;2023-07-08T09:22:05;2.50;;;2.30;;
71204;SDS011;58935;54.498;18.544;2023-07-08T09:24:47;8.20;;;2.60;;
71204;SDS011;58935;54.498;18.544;2023-07-08T09:27:20;4.20;;;2.60;;
71204;SDS011;58935;54.498;18.544;2023-07-08T09:29:46;5.60;;;2.20;;
71204;SDS011;58935;54.498;18.544;2023-07-08T09:32:18;3.70;;;2.40;;
71204;SDS011;58935;54.498;18.544;2023-07-08T09:34:54;5.00;;;2.70;;
71204;SDS011;58935;54.498;18.544;2023-07-08T09:37:33;3.00;;;2.10;;
71204;SDS011;58935;54.498;18.544;2023-07-08T09:40:37;4.40;;;2.60;;
71204;SDS011;58935;54.498;18.544;2023-07-08T09:43:01;2.30;;;2.10;;
71204;SDS011;58935;54.498;18.544;2023-07-08T09:45:42;2.60;;;2.40;;
71204;SDS011;58935;54.498;18.544;2023-07-08T09:48:15;3.00;;;2.20;;
71204;SDS011;58935;54.498;18.544;2023-07-08T09:50:56;2.30;;;2.10;;
71204;SDS011;58935;54.498;18.544;2023-07-08T09:53:23;4.10;;;2.10;;
71204;SDS011;58935;54.498;18.544;2023-07-08T09:55:50;5.60;;;2.10;;
71204;SDS011;58935;54.498;18.544;2023-07-08T09:58:35;6.90;;;2.10;;
71204;SDS011;58935;54.498;18.544;2023-07-08T10:01:17;2.40;;;1.90;;
71204;SDS011;58935;54.498;18.544;2023-07-08T10:03:48;3.40;;;2.30;;
71204;SDS011;58935;54.498;18.544;2023-07-08T10:06:20;5.80;;;2.30;;
71204;SDS011;58935;54.498;18.544;2023-07-08T10:08:49;6.40;;;2.00;;
71204;SDS011;58935;54.498;18.544;2023-07-08T10:11:25;5.00;;;2.10;;
71204;SDS011;58935;54.498;18.544;2023-07-08T10:13:54;4.00;;;2.10;;
71204;SDS011;58935;54.498;18.544;2023-07-08T10:16:28;3.80;;;2.30;;
71204;SDS011;58935;54.498;18.544;2023-07-08T10:18:56;4.60;;;2.30;;
71204;SDS011;58935;54.498;18.544;2023-07-08T10:30:25;2.70;;;1.90;;
71204;SDS011;58935;54.498;18.544;2023-07-08T10:33:31;2.50;;;2.30;;
71204;SDS011;58935;54.498;18.544;2023-07-08T10:36:33;6.80;;;2.40;;
71204;SDS011;58935;54.498;18.544;2023-07-08T10:39:24;3.50;;;2.50;;
71204;SDS011;58935;54.498;18.544;2023-07-08T10:42:12;3.00;;;2.60;;
71204;SDS011;58935;54.498;18.544;2023-07-08T10:48:05;2.00;;;1.80;;
71204;SDS011;58935;54.498;18.544;2023-07-08T10:50:57;4.40;;;2.40;;
71204;SDS011;58935;54.498;18.544;2023-07-08T10:56:41;5.50;;;1.90;;
71204;SDS011;58935;54.498;18.544;2023-07-08T10:59:36;1.60;;;1.40;;
71204;SDS011;58935;54.498;18.544;2023-07-08T11:05:19;2.10;;;1.50;;
71204;SDS011;58935;54.498;18.544;2023-07-08T11:08:07;1.70;;;1.20;;
71204;SDS011;58935;54.498;18.544;2023-07-08T11:10:51;2.80;;;1.20;;
71204;SDS011;58935;54.498;18.544;2023-07-08T11:13:23;1.20;;;1.10;;
71204;SDS011;58935;54.498;18.544;2023-07-08T11:15:58;1.90;;;1.70;;
71204;SDS011;58935;54.498;18.544;2023-07-08T11:18:39;1.70;;;1.30;;
71204;SDS011;58935;54.498;18.544;2023-07-08T11:21:22;1.20;;;1.10;;
71204;SDS011;58935;54.498;18.544;2023-07-08T11:24:04;2.10;;;1.40;;
71204;SDS011;58935;54.498;18.544;2023-07-08T11:26:50;3.40;;;1.40;;
71204;SDS011;58935;54.498;18.544;2023-07-08T11:32:05;4.60;;;1.50;;
71204;SDS011;58935;54.498;18.544;2023-07-08T11:34:34;1.60;;;1.40;;
71204;SDS011;58935;54.498;18.544;2023-07-08T11:37:02;3.40;;;1.70;;
71204;SDS011;58935;54.498;18.544;2023-07-08T11:39:38;1.20;;;1.10;;
71204;SDS011;58935;54.498;18.544;2023-07-08T11:42:37;1.90;;;1.20;;
71204;SDS011;58935;54.498;18.544;2023-07-08T11:48:12;2.90;;;1.40;;
71204;SDS011;58935;54.498;18.544;2023-07-08T11:50:43;2.10;;;1.70;;
71204;SDS011;58935;54.498;18.544;2023-07-08T11:53:31;2.90;;;1.30;;
71204;SDS011;58935;54.498;18.544;2023-07-08T11:56:18;1.20;;;1.10;;
71204;SDS011;58935;54.498;18.544;2023-07-08T11:58:57;2.10;;;1.30;;
71204;SDS011;58935;54.498;18.544;2023-07-08T12:01:39;1.30;;;1.10;;
71204;SDS011;58935;54.498;18.544;2023-07-08T12:04:24;3.40;;;1.60;;
71204;SDS011;58935;54.498;18.544;2023-07-08T12:07:14;1.90;;;1.30;;
71204;SDS011;58935;54.498;18.544;2023-07-08T12:09:48;2.20;;;1.40;;
71204;SDS011;58935;54.498;18.544;2023-07-08T12:12:29;2.40;;;1.40;;
71204;SDS011;58935;54.498;18.544;2023-07-08T12:17:53;4.00;;;1.20;;
71204;SDS011;58935;54.498;18.544;2023-07-08T12:20:25;2.60;;;1.50;;
71204;SDS011;58935;54.498;18.544;2023-07-08T12:22:54;2.00;;;1.20;;
71204;SDS011;58935;54.498;18.544;2023-07-08T12:25:30;3.40;;;1.60;;
71204;SDS011;58935;54.498;18.544;2023-07-08T12:27:58;1.70;;;1.40;;
71204;SDS011;58935;54.498;18.544;2023-07-08T12:30:25;2.90;;;1.50;;
71204;SDS011;58935;54.498;18.544;2023-07-08T12:32:54;3.40;;;1.40;;
71204;SDS011;58935;54.498;18.544;2023-07-08T12:35:26;2.60;;;1.60;;
71204;SDS011;58935;54.498;18.544;2023-07-08T12:37:58;2.30;;;1.20;;
71204;SDS011;58935;54.498;18.544;2023-07-08T12:40:27;2.90;;;1.40;;
71204;SDS011;58935;54.498;18.544;2023-07-08T12:42:55;4.70;;;1.30;;
71204;SDS011;58935;54.498;18.544;2023-07-08T12:45:26;3.80;;;1.30;;
71204;SDS011;58935;54.498;18.544;2023-07-08T12:47:52;2.20;;;1.40;;
71204;SDS011;58935;54.498;18.544;2023-07-08T12:50:18;2.30;;;1.60;;
71204;SDS011;58935;54.498;18.544;2023-07-08T12:52:45;3.40;;;1.20;;
71204;SDS011;58935;54.498;18.544;2023-07-08T12:55:14;3.20;;;1.40;;
71204;SDS011;58935;54.498;18.544;2023-07-08T12:57:43;2.20;;;1.50;;
71204;SDS011;58935;54.498;18.544;2023-07-08T13:00:16;2.60;;;1.70;;
71204;SDS011;58935;54.498;18.544;2023-07-08T13:03:08;4.20;;;1.80;;
71204;SDS011;58935;54.498;18.544;2023-07-08T13:05:40;3.10;;;1.60;;
71204;SDS011;58935;54.498;18.544;2023-07-08T13:08:11;4.60;;;1.50;;
71204;SDS011;58935;54.498;18.544;2023-07-08T13:10:39;4.30;;;1.20;;
71204;SDS011;58935;54.498;18.544;2023-07-08T13:13:07;2.60;;;1.70;;
71204;SDS011;58935;54.498;18.544;2023-07-08T13:15:39;3.20;;;1.50;;
71204;SDS011;58935;54.498;18.544;2023-07-08T13:18:18;1.80;;;1.40;;
71204;SDS011;58935;54.498;18.544;2023-07-08T13:20:56;1.50;;;1.30;;
71204;SDS011;58935;54.498;18.544;2023-07-08T13:23:24;3.70;;;1.20;;
71204;SDS011;58935;54.498;18.544;2023-07-08T13:25:53;1.40;;;1.00;;
71204;SDS011;58935;54.498;18.544;2023-07-08T13:28:28;3.00;;;1.50;;
71204;SDS011;58935;54.498;18.544;2023-07-08T13:31:02;1.50;;;1.40;;
71204;SDS011;58935;54.498;18.544;2023-07-08T13:33:45;2.20;;;1.30;;
71204;SDS011;58935;54.498;18.544;2023-07-08T13:36:13;3.30;;;1.30;;
71204;SDS011;58935;54.498;18.544;2023-07-08T13:38:43;2.90;;;1.40;;
71204;SDS011;58935;54.498;18.544;2023-07-08T13:41:10;1.80;;;1.40;;
71204;SDS011;58935;54.498;18.544;2023-07-08T13:43:39;2.00;;;1.40;;
71204;SDS011;58935;54.498;18.544;2023-07-08T13:46:24;3.10;;;1.70;;
71204;SDS011;58935;54.498;18.544;2023-07-08T13:48:53;2.50;;;1.20;;
71204;SDS011;58935;54.498;18.544;2023-07-08T13:51:21;3.40;;;1.40;;
71204;SDS011;58935;54.498;18.544;2023-07-08T13:53:53;2.50;;;1.30;;
71204;SDS011;58935;54.498;18.544;2023-07-08T13:56:28;3.20;;;1.50;;
71204;SDS011;58935;54.498;18.544;2023-07-08T13:59:07;4.40;;;1.50;;
71204;SDS011;58935;54.498;18.544;2023-07-08T14:01:38;2.10;;;1.20;;
71204;SDS011;58935;54.498;18.544;2023-07-08T14:04:05;2.30;;;1.60;;
71204;SDS011;58935;54.498;18.544;2023-07-08T14:06:34;2.90;;;1.40;;
71204;SDS011;58935;54.498;18.544;2023-07-08T14:09:18;2.30;;;1.60;;
71204;SDS011;58935;54.498;18.544;2023-07-08T14:11:47;2.10;;;1.10;;
71204;SDS011;58935;54.498;18.544;2023-07-08T14:14:14;2.10;;;1.60;;
71204;SDS011;58935;54.498;18.544;2023-07-08T14:16:43;3.60;;;1.50;;
71204;SDS011;58935;54.498;18.544;2023-07-08T14:19:17;2.70;;;1.40;;
71204;SDS011;58935;54.498;18.544;2023-07-08T14:21:51;3.80;;;1.70;;
71204;SDS011;58935;54.498;18.544;2023-07-08T14:24:20;2.20;;;1.50;;
71204;SDS011;58935;54.498;18.544;2023-07-08T14:26:46;5.10;;;1.40;;
71204;SDS011;58935;54.498;18.544;2023-07-08T14:29:12;2.20;;;1.50;;
71204;SDS011;58935;54.498;18.544;2023-07-08T14:31:39;2.60;;;1.60;;
71204;SDS011;58935;54.498;18.544;2023-07-08T14:34:07;3.80;;;1.90;;
71204;SDS011;58935;54.498;18.544;2023-07-08T14:36:38;3.40;;;1.60;;
71204;SDS011;58935;54.498;18.544;2023-07-08T14:39:12;6.50;;;2.10;;
71204;SDS011;58935;54.498;18.544;2023-07-08T14:41:39;6.10;;;1.80;;
71204;SDS011;58935;54.498;18.544;2023-07-08T14:44:23;3.40;;;1.40;;
71204;SDS011;58935;54.498;18.544;2023-07-08T14:46:50;3.80;;;1.70;;
71204;SDS011;58935;54.498;18.544;2023-07-08T14:49:21;5.90;;;1.80;;
71204;SDS011;58935;54.498;18.544;2023-07-08T14:51:48;4.90;;;2.10;;
71204;SDS011;58935;54.498;18.544;2023-07-08T14:54:14;1.50;;;1.30;;
71204;SDS011;58935;54.498;18.544;2023-07-08T14:56:41;2.10;;;1.30;;
71204;SDS011;58935;54.498;18.544;2023-07-08T14:59:12;5.40;;;1.50;;
71204;SDS011;58935;54.498;18.544;2023-07-08T15:01:41;3.80;;;1.50;;
71204;SDS011;58935;54.498;18.544;2023-07-08T15:04:14;2.40;;;1.50;;
71204;SDS011;58935;54.498;18.544;2023-07-08T15:06:42;3.30;;;1.40;;
71204;SDS011;58935;54.498;18.544;2023-07-08T15:09:09;2.20;;;1.70;;
71204;SDS011;58935;54.498;18.544;2023-07-08T15:11:36;4.30;;;1.70;;
71204;SDS011;58935;54.498;18.544;2023-07-08T15:14:06;4.30;;;2.00;;
71204;SDS011;58935;54.498;18.544;2023-07-08T15:16:39;2.70;;;1.70;;
71204;SDS011;58935;54.498;18.544;2023-07-08T15:19:09;4.20;;;1.60;;
71204;SDS011;58935;54.498;18.544;2023-07-08T15:21:37;2.10;;;1.60;;
71204;SDS011;58935;54.498;18.544;2023-07-08T15:24:03;6.80;;;1.80;;